This is the latest recevied weather packets stored in our database for station/object W1BKW. If no packets are shown the sender has not sent any weather packets the latest 10 day(s).
| Time | Temp. | Humidity | Pressure | Rain* | Wind** | Luminosity | Snow |
|---|---|---|---|---|---|---|---|
| 1777515841 | 6.67° C | 99% | 1012.7 hPa | 1.27 mm | - | 0 W/m² | - |
| 1777514936 | 6.67° C | 99% | 1012.7 hPa | 0 mm | - | 0 W/m² | - |
| 1777514033 | 6.67° C | 99% | 1012.8 hPa | 0 mm | - | 0 W/m² | - |
| 1777513129 | 6.67° C | 99% | 1012.8 hPa | 0 mm | - | 0 W/m² | - |
| 1777512224 | 7.22° C | 99% | 1013.1 hPa | 0 mm | - | 0 W/m² | - |
| 1777511323 | 7.22° C | 99% | 1012.8 hPa | 0 mm | - | 0 W/m² | - |
| 1777510424 | 7.22° C | 99% | 1012.8 hPa | 0 mm | - | 0 W/m² | - |
| 1777509518 | 7.78° C | 99% | 1012.8 hPa | 0 mm | - | 0 W/m² | - |
| 1777508615 | 7.78° C | 99% | 1012.7 hPa | 0 mm | - | 0 W/m² | - |
| 1777507712 | 8.33° C | 98% | 1012.7 hPa | 0 mm | - | 0 W/m² | - |
| 1777506810 | 8.33° C | 97% | 1013 hPa | 0 mm | - | 0 W/m² | - |
| 1777505909 | 9.44° C | 91% | 1012.9 hPa | 0 mm | - | 0 W/m² | - |
| 1777505005 | 10° C | 88% | 1012.5 hPa | 0 mm | - | 1 W/m² | - |
| 1777504100 | 10° C | 87% | 1012.5 hPa | 0 mm | - | 3 W/m² | - |
| 1777503195 | 10.56° C | 85% | 1012.5 hPa | 0 mm | - | 6 W/m² | - |
| 1777502292 | 11.11° C | 82% | 1012.6 hPa | 0 mm | - | 7 W/m² | - |
| 1777501389 | 11.67° C | 81% | 1012.2 hPa | 0 mm | - | 14 W/m² | - |
| 1777500488 | 11.67° C | 82% | 1012.4 hPa | 0 mm | - | 14 W/m² | - |
| 1777499582 | 12.22° C | 79% | 1012.4 hPa | 0 mm | - | 30 W/m² | - |
| 1777498679 | 12.78° C | 79% | 1011.9 hPa | 0 mm | - | 44 W/m² | - |
| 1777497775 | 13.33° C | 76% | 1012.2 hPa | 0 mm | - | 84 W/m² | - |
| 1777496871 | 13.33° C | 76% | 1012.4 hPa | 0 mm | - | 79 W/m² | - |
| 1777495972 | 13.33° C | 76% | 1012.6 hPa | 0 mm | - | 75 W/m² | - |
| 1777495068 | 13.89° C | 74% | 1012.4 hPa | 0 mm | - | 73 W/m² | - |
| 1777494164 | 14.44° C | 72% | 1012.5 hPa | 0 mm | - | 103 W/m² | - |
* Rain latest hour (hover to see other rain measurements)
** Current wind speed in m/s (hover to see current wind gust speed)